Buoy 41602

sailwx.info

Track history (hours):
 
Tides and Currents Weather Stations Pressure Air Temp Water Temp Dewpoint Dewpoint Depression Visibility Wind Speed Wind Dir Waves Ship Positions

Drifting buoy 41602

Last reported at 2014-Sep-01 11:31 UTC. Time now 2014-Sep-01 13:53 UTC.
Position N 28°44' W 047°39'.

Date/timePositionNaut miles runAvg speedWind from/ knotsBaromVisibWave heightAir tempDewpointWater temp
2014-Sep-01 11:31N 28°44' W 047°39'0 0.2
2014-Sep-01 11:01N 28°44' W 047°39'1 0.2
2014-Sep-01 08:31N 28°44' W 047°40'0 0.3
2014-Sep-01 08:01N 28°44' W 047°40'0 0.2
2014-Sep-01 06:00N 28°44' W 047°40'1 0.3
2014-Sep-01 01:30N 28°43' W 047°41'0 0.3
2014-Sep-01 01:01N 28°43' W 047°41'0 0.1
2014-Sep-01 00:00N 28°43' W 047°42'0 0.2
2014-Aug-31 23:30N 28°43' W 047°42'0 0.1
2014-Aug-31 23:01N 28°43' W 047°42'0 0.1
2014-Aug-31 20:00N 28°43' W 047°42'0 0.1
2014-Aug-31 18:31N 28°43' W 047°42'0 0.1
2014-Aug-31 18:01N 28°43' W 047°42'0 0.2
2014-Aug-31 16:00N 28°43' W 047°42'0 0.3
2014-Aug-31 15:30N 28°44' W 047°42'0 0.4
2014-Aug-31 15:01N 28°44' W 047°43'2 0.3
2014-Aug-31 09:01N 28°43' W 047°44'0 0.1
2014-Aug-31 06:31N 28°43' W 047°45'0 0.2
2014-Aug-31 06:01N 28°43' W 047°45'2 0.3
2014-Aug-31 00:31N 28°42' W 047°46'0 0.3
2014-Aug-31 00:01N 28°42' W 047°46'0 0.3
2014-Aug-30 22:31N 28°41' W 047°46'0 0.4
2014-Aug-30 22:01N 28°41' W 047°46'1 0.3
2014-Aug-30 20:00N 28°41' W 047°46'0 0.1
2014-Aug-30 18:30N 28°40' W 047°46'0 0.2
2014-Aug-30 18:00N 28°40' W 047°46'1 0.1
2014-Aug-30 12:31N 28°40' W 047°46'0 0.2
2014-Aug-30 12:01N 28°40' W 047°46'0 0.1
2014-Aug-30 11:30N 28°40' W 047°47'0 0.1
2014-Aug-30 11:00N 28°40' W 047°47'0 0.0
2014-Aug-30 10:31N 28°40' W 047°47'0 0.2
2014-Aug-30 10:01N 28°40' W 047°47'0 0.1
2014-Aug-30 07:00N 28°40' W 047°47'0 0.2
2014-Aug-30 06:31N 28°40' W 047°47'0 0.2
2014-Aug-30 06:01N 28°40' W 047°47'1 0.2
2014-Aug-30 00:30N 28°39' W 047°48'0 0.2
2014-Aug-30 00:01N 28°39' W 047°48'0 0.1
2014-Aug-29 23:00N 28°39' W 047°49'0 0.1
2014-Aug-29 21:00N 28°39' W 047°49'1 0.3
2014-Aug-29 18:01N 28°39' W 047°50'0 0.4
2014-Aug-29 17:31N 28°39' W 047°50'0 0.3
2014-Aug-29 17:01N 28°39' W 047°50'0 0.3
2014-Aug-29 16:31N 28°39' W 047°50'0 0.4
2014-Aug-29 16:01N 28°39' W 047°51'1 0.3
2014-Aug-29 13:30N 28°38' W 047°51'0 0.3
2014-Aug-29 13:00N 28°38' W 047°51'0 0.2
2014-Aug-29 12:31N 28°38' W 047°51'0 0.2
2014-Aug-29 12:01N 28°38' W 047°51'0 0.0
2014-Aug-29 10:01N 28°38' W 047°51'0 0.1
2014-Aug-29 09:01N 28°38' W 047°51'0 0.3
2014-Aug-29 07:31N 28°39' W 047°51'0 0.3
2014-Aug-29 07:01N 28°39' W 047°52'2 0.3
2014-Aug-29 01:01N 28°39' W 047°54'0 0.3
2014-Aug-29 00:31N 28°39' W 047°54'1 1.8
2014-Aug-29 00:01N 28°40' W 047°54'1 1.4
2014-Aug-28 23:31N 28°40' W 047°54'0 0.3
2014-Aug-28 23:01N 28°40' W 047°54'2 0.3
2014-Aug-28 16:31N 28°39' W 047°57'0 0.4
2014-Aug-28 16:01N 28°39' W 047°57'0 0.3
2014-Aug-28 15:00N 28°38' W 047°57'0 0.4
2014-Aug-28 14:30N 28°38' W 047°57'1 0.2
2014-Aug-28 11:31N 28°38' W 047°57'0 0.1
2014-Aug-28 11:01N 28°38' W 047°57'0 0.1
2014-Aug-28 06:01N 28°38' W 047°56'0 0.1
2014-Aug-28 04:01N 28°38' W 047°56'0 0.0
2014-Aug-28 01:31N 28°38' W 047°56'0 0.0
2014-Aug-28 01:01N 28°38' W 047°56'0 0.2
2014-Aug-28 00:31N 28°38' W 047°56'0 0.1
2014-Aug-28 00:01N 28°38' W 047°56'0 0.1
2014-Aug-27 22:01N 28°38' W 047°56'0 0.1
2014-Aug-27 21:31N 28°38' W 047°56'1 0.3
2014-Aug-27 19:01N 28°37' W 047°57'0 0.4
2014-Aug-27 18:31N 28°37' W 047°57'2 0.4
2014-Aug-27 13:31N 28°35' W 047°55'0 0.5
2014-Aug-27 13:01N 28°35' W 047°55'0 0.4
2014-Aug-27 12:30N 28°35' W 047°55'0 0.5
2014-Aug-27 12:00N 28°35' W 047°54'1 0.3
2014-Aug-27 08:01N 28°35' W 047°53'1 0.1
2014-Aug-27 00:01N 28°35' W 047°52'0 0.2
2014-Aug-26 23:31N 28°35' W 047°52'0 0.3
2014-Aug-26 23:01N 28°35' W 047°52'0 0.1
2014-Aug-26 21:30N 28°35' W 047°52'0 0.2
2014-Aug-26 21:00N 28°35' W 047°52'0 0.2
2014-Aug-26 19:01N 28°35' W 047°52'0 0.4
2014-Aug-26 18:31N 28°34' W 047°52'0 0.4
2014-Aug-26 17:31N 28°34' W 047°52'0 0.4
2014-Aug-26 17:00N 28°34' W 047°52'1 0.4
2014-Aug-26 15:31N 28°33' W 047°52'0 0.3
2014-Aug-26 15:00N 28°33' W 047°52'1 0.4
2014-Aug-26 12:00N 28°32' W 047°50'1 0.5
2014-Aug-26 11:01N 28°32' W 047°50'0 0.5
2014-Aug-26 10:01N 28°32' W 047°49'1 0.5
2014-Aug-26 08:00N 28°32' W 047°48'0 0.3
2014-Aug-26 07:31N 28°32' W 047°48'0 0.5
2014-Aug-26 07:01N 28°32' W 047°48'2 0.3
2014-Aug-26 00:31N 28°34' W 047°47'0 0.3
2014-Aug-26 00:01N 28°34' W 047°47'0 0.2
2014-Aug-25 23:31N 28°34' W 047°48'0 0.2
2014-Aug-25 23:01N 28°34' W 047°48'0 0.2
2014-Aug-25 22:30N 28°34' W 047°48'0 0.3
2014-Aug-25 22:00N 28°34' W 047°48'0 0.4
2014-Aug-25 21:01N 28°34' W 047°48'1 0.4
2014-Aug-25 18:01N 28°33' W 047°49'0 0.5
2014-Aug-25 17:31N 28°32' W 047°49'0 0.5
2014-Aug-25 17:01N 28°32' W 047°49'1 0.4
2014-Aug-25 14:30N 28°31' W 047°49'0 0.5
2014-Aug-25 14:01N 28°31' W 047°49'1 0.5
2014-Aug-25 12:31N 28°30' W 047°49'0 0.4
2014-Aug-25 12:01N 28°30' W 047°48'2 0.2
2014-Aug-25 04:01N 28°30' W 047°46'1 0.5
2014-Aug-25 03:00N 28°31' W 047°46'1 0.5
2014-Aug-25 00:00N 28°32' W 047°47'3 0.6
2014-Aug-24 19:30N 28°32' W 047°50'0 0.6
2014-Aug-24 19:00N 28°31' W 047°51'1 0.7
2014-Aug-24 17:31N 28°31' W 047°51'0 0.6
2014-Aug-24 17:01N 28°30' W 047°51'1 0.4
2014-Aug-24 14:31N 28°29' W 047°52'0 0.4
2014-Aug-24 14:01N 28°29' W 047°52'1 0.4
2014-Aug-24 12:30N 28°29' W 047°51'0 0.4
2014-Aug-24 12:01N 28°28' W 047°51'1 0.2
2014-Aug-24 06:31N 28°28' W 047°50'0 0.2
2014-Aug-24 06:00N 28°28' W 047°50'0 0.2
2014-Aug-24 04:31N 28°28' W 047°50'0 0.2
2014-Aug-24 04:01N 28°28' W 047°50'1 0.2
2014-Aug-24 01:01N 28°29' W 047°50'0 0.3
2014-Aug-24 00:31N 28°29' W 047°50'0 0.2
2014-Aug-24 00:00N 28°29' W 047°50'1 0.4
2014-Aug-23 20:01N 28°29' W 047°52'0 0.5
2014-Aug-23 19:31N 28°28' W 047°52'0 0.5
2014-Aug-23 19:00N 28°28' W 047°52'2 0.5
2014-Aug-23 16:01N 28°27' W 047°53'1 0.4
2014-Aug-23 14:01N 28°26' W 047°53'1 0.3
2014-Aug-23 12:00N 28°26' W 047°52'0 0.2
2014-Aug-23 11:30N 28°26' W 047°52'0 0.2
2014-Aug-23 10:00N 28°26' W 047°52'0 0.2
2014-Aug-23 09:30N 28°26' W 047°52'0 0.2
2014-Aug-23 09:01N 28°26' W 047°52'0 0.2
2014-Aug-23 08:31N 28°26' W 047°52'0 0.2
2014-Aug-23 08:01N 28°26' W 047°52'0 0.2
2014-Aug-23 07:01N 28°26' W 047°51'0 0.1
2014-Aug-23 06:31N 28°26' W 047°51'0 0.1
2014-Aug-23 06:01N 28°26' W 047°51'0 0.1
2014-Aug-23 04:30N 28°26' W 047°51'0 0.1
2014-Aug-23 04:00N 28°26' W 047°51'0 0.0
2014-Aug-23 03:31N 28°26' W 047°51'0 0.1
2014-Aug-23 03:01N 28°26' W 047°51'1 0.2
2014-Aug-23 00:01N 28°26' W 047°51'0 0.2
2014-Aug-22 23:31N 28°26' W 047°50'0 0.2
2014-Aug-22 23:01N 28°26' W 047°50'1 0.2
2014-Aug-22 18:31N 28°26' W 047°49'0 0.3
2014-Aug-22 18:01N 28°26' W 047°49'1 0.4
2014-Aug-22 16:01N 28°26' W 047°48'  
Track history (hours):
 
Tides and Currents Weather Stations Pressure Air Temp Water Temp Dewpoint Dewpoint Depression Visibility Wind Speed Wind Dir Waves Ship Positions

Drifting buoy 41602

Last reported at 2014-Sep-01 11:31 UTC. Time now 2014-Sep-01 13:53 UTC.
Position N 28°44' W 047°39'.

Date/timePositionNaut miles runAvg speedWind from/ knotsBaromVisibWave heightAir tempDewpointWater temp
2014-Sep-01 11:31N 28°44' W 047°39'0 0.2
2014-Sep-01 11:01N 28°44' W 047°39'1 0.2
2014-Sep-01 08:31N 28°44' W 047°40'0 0.3
2014-Sep-01 08:01N 28°44' W 047°40'0 0.2
2014-Sep-01 06:00N 28°44' W 047°40'1 0.3
2014-Sep-01 01:30N 28°43' W 047°41'0 0.3
2014-Sep-01 01:01N 28°43' W 047°41'0 0.1
2014-Sep-01 00:00N 28°43' W 047°42'0 0.2
2014-Aug-31 23:30N 28°43' W 047°42'0 0.1
2014-Aug-31 23:01N 28°43' W 047°42'0 0.1
2014-Aug-31 20:00N 28°43' W 047°42'0 0.1
2014-Aug-31 18:31N 28°43' W 047°42'0 0.1
2014-Aug-31 18:01N 28°43' W 047°42'0 0.2
2014-Aug-31 16:00N 28°43' W 047°42'0 0.3
2014-Aug-31 15:30N 28°44' W 047°42'0 0.4
2014-Aug-31 15:01N 28°44' W 047°43'2 0.3
2014-Aug-31 09:01N 28°43' W 047°44'0 0.1
2014-Aug-31 06:31N 28°43' W 047°45'0 0.2
2014-Aug-31 06:01N 28°43' W 047°45'2 0.3
2014-Aug-31 00:31N 28°42' W 047°46'0 0.3
2014-Aug-31 00:01N 28°42' W 047°46'0 0.3
2014-Aug-30 22:31N 28°41' W 047°46'0 0.4
2014-Aug-30 22:01N 28°41' W 047°46'1 0.3
2014-Aug-30 20:00N 28°41' W 047°46'0 0.1
2014-Aug-30 18:30N 28°40' W 047°46'0 0.2
2014-Aug-30 18:00N 28°40' W 047°46'1 0.1
2014-Aug-30 12:31N 28°40' W 047°46'0 0.2
2014-Aug-30 12:01N 28°40' W 047°46'0 0.1
2014-Aug-30 11:30N 28°40' W 047°47'0 0.1
2014-Aug-30 11:00N 28°40' W 047°47'0 0.0
2014-Aug-30 10:31N 28°40' W 047°47'0 0.2
2014-Aug-30 10:01N 28°40' W 047°47'0 0.1
2014-Aug-30 07:00N 28°40' W 047°47'0 0.2
2014-Aug-30 06:31N 28°40' W 047°47'0 0.2
2014-Aug-30 06:01N 28°40' W 047°47'1 0.2
2014-Aug-30 00:30N 28°39' W 047°48'0 0.2
2014-Aug-30 00:01N 28°39' W 047°48'0 0.1
2014-Aug-29 23:00N 28°39' W 047°49'0 0.1
2014-Aug-29 21:00N 28°39' W 047°49'1 0.3
2014-Aug-29 18:01N 28°39' W 047°50'0 0.4
2014-Aug-29 17:31N 28°39' W 047°50'0 0.3
2014-Aug-29 17:01N 28°39' W 047°50'0 0.3
2014-Aug-29 16:31N 28°39' W 047°50'0 0.4
2014-Aug-29 16:01N 28°39' W 047°51'1 0.3
2014-Aug-29 13:30N 28°38' W 047°51'0 0.3
2014-Aug-29 13:00N 28°38' W 047°51'0 0.2
2014-Aug-29 12:31N 28°38' W 047°51'0 0.2
2014-Aug-29 12:01N 28°38' W 047°51'0 0.0
2014-Aug-29 10:01N 28°38' W 047°51'0 0.1
2014-Aug-29 09:01N 28°38' W 047°51'0 0.3
2014-Aug-29 07:31N 28°39' W 047°51'0 0.3
2014-Aug-29 07:01N 28°39' W 047°52'2 0.3
2014-Aug-29 01:01N 28°39' W 047°54'0 0.3
2014-Aug-29 00:31N 28°39' W 047°54'1 1.8
2014-Aug-29 00:01N 28°40' W 047°54'1 1.4
2014-Aug-28 23:31N 28°40' W 047°54'0 0.3
2014-Aug-28 23:01N 28°40' W 047°54'2 0.3
2014-Aug-28 16:31N 28°39' W 047°57'0 0.4
2014-Aug-28 16:01N 28°39' W 047°57'0 0.3
2014-Aug-28 15:00N 28°38' W 047°57'0 0.4
2014-Aug-28 14:30N 28°38' W 047°57'1 0.2
2014-Aug-28 11:31N 28°38' W 047°57'0 0.1
2014-Aug-28 11:01N 28°38' W 047°57'0 0.1
2014-Aug-28 06:01N 28°38' W 047°56'0 0.1
2014-Aug-28 04:01N 28°38' W 047°56'0 0.0
2014-Aug-28 01:31N 28°38' W 047°56'0 0.0
2014-Aug-28 01:01N 28°38' W 047°56'0 0.2
2014-Aug-28 00:31N 28°38' W 047°56'0 0.1
2014-Aug-28 00:01N 28°38' W 047°56'0 0.1
2014-Aug-27 22:01N 28°38' W 047°56'0 0.1
2014-Aug-27 21:31N 28°38' W 047°56'1 0.3
2014-Aug-27 19:01N 28°37' W 047°57'0 0.4
2014-Aug-27 18:31N 28°37' W 047°57'2 0.4
2014-Aug-27 13:31N 28°35' W 047°55'0 0.5
2014-Aug-27 13:01N 28°35' W 047°55'0 0.4
2014-Aug-27 12:30N 28°35' W 047°55'0 0.5
2014-Aug-27 12:00N 28°35' W 047°54'1 0.3
2014-Aug-27 08:01N 28°35' W 047°53'1 0.1
2014-Aug-27 00:01N 28°35' W 047°52'0 0.2
2014-Aug-26 23:31N 28°35' W 047°52'0 0.3
2014-Aug-26 23:01N 28°35' W 047°52'0 0.1
2014-Aug-26 21:30N 28°35' W 047°52'0 0.2
2014-Aug-26 21:00N 28°35' W 047°52'0 0.2
2014-Aug-26 19:01N 28°35' W 047°52'0 0.4
2014-Aug-26 18:31N 28°34' W 047°52'0 0.4
2014-Aug-26 17:31N 28°34' W 047°52'0 0.4
2014-Aug-26 17:00N 28°34' W 047°52'1 0.4
2014-Aug-26 15:31N 28°33' W 047°52'0 0.3
2014-Aug-26 15:00N 28°33' W 047°52'1 0.4
2014-Aug-26 12:00N 28°32' W 047°50'1 0.5
2014-Aug-26 11:01N 28°32' W 047°50'0 0.5
2014-Aug-26 10:01N 28°32' W 047°49'1 0.5
2014-Aug-26 08:00N 28°32' W 047°48'0 0.3
2014-Aug-26 07:31N 28°32' W 047°48'0 0.5
2014-Aug-26 07:01N 28°32' W 047°48'2 0.3
2014-Aug-26 00:31N 28°34' W 047°47'0 0.3
2014-Aug-26 00:01N 28°34' W 047°47'0 0.2
2014-Aug-25 23:31N 28°34' W 047°48'0 0.2
2014-Aug-25 23:01N 28°34' W 047°48'0 0.2
2014-Aug-25 22:30N 28°34' W 047°48'0 0.3
2014-Aug-25 22:00N 28°34' W 047°48'0 0.4
2014-Aug-25 21:01N 28°34' W 047°48'1 0.4
2014-Aug-25 18:01N 28°33' W 047°49'0 0.5
2014-Aug-25 17:31N 28°32' W 047°49'0 0.5
2014-Aug-25 17:01N 28°32' W 047°49'1 0.4
2014-Aug-25 14:30N 28°31' W 047°49'0 0.5
2014-Aug-25 14:01N 28°31' W 047°49'1 0.5
2014-Aug-25 12:31N 28°30' W 047°49'0 0.4
2014-Aug-25 12:01N 28°30' W 047°48'2 0.2
2014-Aug-25 04:01N 28°30' W 047°46'1 0.5
2014-Aug-25 03:00N 28°31' W 047°46'1 0.5
2014-Aug-25 00:00N 28°32' W 047°47'3 0.6
2014-Aug-24 19:30N 28°32' W 047°50'0 0.6
2014-Aug-24 19:00N 28°31' W 047°51'1 0.7
2014-Aug-24 17:31N 28°31' W 047°51'0 0.6
2014-Aug-24 17:01N 28°30' W 047°51'1 0.4
2014-Aug-24 14:31N 28°29' W 047°52'0 0.4
2014-Aug-24 14:01N 28°29' W 047°52'1 0.4
2014-Aug-24 12:30N 28°29' W 047°51'0 0.4
2014-Aug-24 12:01N 28°28' W 047°51'1 0.2
2014-Aug-24 06:31N 28°28' W 047°50'0 0.2
2014-Aug-24 06:00N 28°28' W 047°50'0 0.2
2014-Aug-24 04:31N 28°28' W 047°50'0 0.2
2014-Aug-24 04:01N 28°28' W 047°50'1 0.2
2014-Aug-24 01:01N 28°29' W 047°50'0 0.3
2014-Aug-24 00:31N 28°29' W 047°50'0 0.2
2014-Aug-24 00:00N 28°29' W 047°50'1 0.4
2014-Aug-23 20:01N 28°29' W 047°52'0 0.5
2014-Aug-23 19:31N 28°28' W 047°52'0 0.5
2014-Aug-23 19:00N 28°28' W 047°52'2 0.5
2014-Aug-23 16:01N 28°27' W 047°53'1 0.4
2014-Aug-23 14:01N 28°26' W 047°53'1 0.3
2014-Aug-23 12:00N 28°26' W 047°52'0 0.2
2014-Aug-23 11:30N 28°26' W 047°52'0 0.2
2014-Aug-23 10:00N 28°26' W 047°52'0 0.2
2014-Aug-23 09:30N 28°26' W 047°52'0 0.2
2014-Aug-23 09:01N 28°26' W 047°52'0 0.2
2014-Aug-23 08:31N 28°26' W 047°52'0 0.2
2014-Aug-23 08:01N 28°26' W 047°52'0 0.2
2014-Aug-23 07:01N 28°26' W 047°51'0 0.1
2014-Aug-23 06:31N 28°26' W 047°51'0 0.1
2014-Aug-23 06:01N 28°26' W 047°51'0 0.1
2014-Aug-23 04:30N 28°26' W 047°51'0 0.1
2014-Aug-23 04:00N 28°26' W 047°51'0 0.0
2014-Aug-23 03:31N 28°26' W 047°51'0 0.1
2014-Aug-23 03:01N 28°26' W 047°51'1 0.2
2014-Aug-23 00:01N 28°26' W 047°51'0 0.2
2014-Aug-22 23:31N 28°26' W 047°50'0 0.2
2014-Aug-22 23:01N 28°26' W 047°50'1 0.2
2014-Aug-22 18:31N 28°26' W 047°49'0 0.3
2014-Aug-22 18:01N 28°26' W 047°49'1 0.4
2014-Aug-22 16:01N 28°26' W 047°48'  

Dump ship's entire track history